Archival Weather

Tokyo Intl

Tokyo, Japan (RJTT)

Report from: Saturday, April 1, 2023 10:30 PM JST
Current time: Sunday, July 14, 2024 7:23 PM JST

Current weather – Weather history – Daily summaries
Weather forecast

Temperature15.0°C (59.0°F)
Dew point10.0°C (50.0°F)
Winds 10 kts (5.1 m/s, 11.5 mph) East-Northeast (60°)
Visibility6.2 mi. (10 km)
Clouds Few clouds 3,000 ft. (914 m)
Ceiling: Broken clouds 5,000 ft. (1,524 m)
Broken clouds 10,000 ft. (3,048 m)
Altimeter30.03 in.Hg (1017 mB)
Relative humidity72 %
Density altitude47 ft. (14 m)
Flight conditions Visual Meteorological Conditions
Raw dataRJTT 011330Z 06010KT 9999 FEW030 BKN050 BKN100 15/10 Q1017 BECMG 05008KT RMK 1CU030 5SC050 7AC100 A3004
An error has occurred. This application may no longer respond until reloaded. Reload 🗙